sensor_id;sensor_type;location;lat;lon;timestamp;pressure;altitude;pressure_sealevel;temperature;humidity
8061;BME280;4073;42.626;25.386;2023-06-22T00:02:15;97507.56;;;21.73;100.00
8061;BME280;4073;42.626;25.386;2023-06-22T00:04:41;97504.84;;;21.73;100.00
8061;BME280;4073;42.626;25.386;2023-06-22T00:07:06;97506.16;;;21.67;100.00
8061;BME280;4073;42.626;25.386;2023-06-22T00:09:33;97501.69;;;21.62;100.00
8061;BME280;4073;42.626;25.386;2023-06-22T00:11:58;97492.69;;;21.50;100.00
8061;BME280;4073;42.626;25.386;2023-06-22T00:14:24;97494.94;;;21.48;100.00
8061;BME280;4073;42.626;25.386;2023-06-22T00:16:49;97496.41;;;21.45;100.00
8061;BME280;4073;42.626;25.386;2023-06-22T00:19:20;97498.22;;;21.41;100.00
8061;BME280;4073;42.626;25.386;2023-06-22T00:21:47;97499.31;;;21.40;100.00
8061;BME280;4073;42.626;25.386;2023-06-22T00:24:13;97503.50;;;21.38;100.00
8061;BME280;4073;42.626;25.386;2023-06-22T00:26:38;97499.06;;;21.33;100.00
8061;BME280;4073;42.626;25.386;2023-06-22T00:29:04;97502.91;;;21.32;100.00
8061;BME280;4073;42.626;25.386;2023-06-22T00:31:29;97504.38;;;21.30;100.00
8061;BME280;4073;42.626;25.386;2023-06-22T00:33:55;97510.00;;;21.25;100.00
8061;BME280;4073;42.626;25.386;2023-06-22T00:36:20;97508.63;;;21.19;100.00
8061;BME280;4073;42.626;25.386;2023-06-22T00:38:46;97518.72;;;21.18;100.00
8061;BME280;4073;42.626;25.386;2023-06-22T00:41:11;97524.47;;;21.17;100.00
8061;BME280;4073;42.626;25.386;2023-06-22T00:43:37;97524.69;;;21.12;100.00
8061;BME280;4073;42.626;25.386;2023-06-22T00:46:02;97525.19;;;21.05;100.00
8061;BME280;4073;42.626;25.386;2023-06-22T00:48:28;97527.66;;;20.90;100.00
8061;BME280;4073;42.626;25.386;2023-06-22T00:50:54;97513.41;;;20.64;100.00
8061;BME280;4073;42.626;25.386;2023-06-22T00:53:21;97523.38;;;20.51;100.00
8061;BME280;4073;42.626;25.386;2023-06-22T00:55:48;97526.47;;;20.41;100.00
8061;BME280;4073;42.626;25.386;2023-06-22T00:58:17;97519.16;;;20.33;100.00
8061;BME280;4073;42.626;25.386;2023-06-22T01:00:43;97507.53;;;20.24;100.00
8061;BME280;4073;42.626;25.386;2023-06-22T01:03:08;97521.28;;;20.19;100.00
8061;BME280;4073;42.626;25.386;2023-06-22T01:05:35;97515.69;;;20.15;100.00
8061;BME280;4073;42.626;25.386;2023-06-22T01:08:20;97512.34;;;20.10;100.00
8061;BME280;4073;42.626;25.386;2023-06-22T01:10:52;97515.56;;;20.03;100.00
8061;BME280;4073;42.626;25.386;2023-06-22T01:16:02;97511.41;;;19.97;100.00
8061;BME280;4073;42.626;25.386;2023-06-22T01:18:30;97495.28;;;20.01;100.00
8061;BME280;4073;42.626;25.386;2023-06-22T01:20:56;97502.31;;;20.02;100.00
8061;BME280;4073;42.626;25.386;2023-06-22T01:28:53;97475.94;;;20.11;100.00
8061;BME280;4073;42.626;25.386;2023-06-22T01:31:26;97486.31;;;20.17;100.00
8061;BME280;4073;42.626;25.386;2023-06-22T01:34:01;97481.34;;;20.19;100.00
8061;BME280;4073;42.626;25.386;2023-06-22T01:36:29;97486.13;;;20.22;100.00
8061;BME280;4073;42.626;25.386;2023-06-22T01:38:56;97478.63;;;20.19;100.00
8061;BME280;4073;42.626;25.386;2023-06-22T01:41:25;97480.91;;;20.17;100.00
8061;BME280;4073;42.626;25.386;2023-06-22T01:43:51;97478.50;;;20.16;100.00
8061;BME280;4073;42.626;25.386;2023-06-22T01:46:18;97478.84;;;20.14;100.00
8061;BME280;4073;42.626;25.386;2023-06-22T01:48:45;97487.09;;;20.09;100.00
8061;BME280;4073;42.626;25.386;2023-06-22T01:51:10;97475.94;;;20.11;100.00
8061;BME280;4073;42.626;25.386;2023-06-22T01:53:36;97475.63;;;20.12;100.00
8061;BME280;4073;42.626;25.386;2023-06-22T01:56:02;97483.00;;;20.12;100.00
8061;BME280;4073;42.626;25.386;2023-06-22T01:58:29;97489.81;;;20.09;100.00
8061;BME280;4073;42.626;25.386;2023-06-22T02:01:05;97506.63;;;20.03;100.00
8061;BME280;4073;42.626;25.386;2023-06-22T02:04:06;97499.44;;;19.98;100.00
8061;BME280;4073;42.626;25.386;2023-06-22T02:06:36;97474.13;;;19.77;100.00
8061;BME280;4073;42.626;25.386;2023-06-22T02:09:08;97501.41;;;19.89;100.00
8061;BME280;4073;42.626;25.386;2023-06-22T02:11:36;97505.84;;;19.85;100.00
8061;BME280;4073;42.626;25.386;2023-06-22T02:14:02;97501.25;;;19.77;100.00
8061;BME280;4073;42.626;25.386;2023-06-22T02:16:28;97499.81;;;19.71;100.00
8061;BME280;4073;42.626;25.386;2023-06-22T02:18:55;97494.25;;;19.68;100.00
8061;BME280;4073;42.626;25.386;2023-06-22T02:21:22;97501.25;;;19.69;100.00
8061;BME280;4073;42.626;25.386;2023-06-22T02:23:47;97496.81;;;19.64;100.00
8061;BME280;4073;42.626;25.386;2023-06-22T02:26:13;97505.75;;;19.65;100.00
8061;BME280;4073;42.626;25.386;2023-06-22T02:28:39;97510.38;;;19.64;100.00
8061;BME280;4073;42.626;25.386;2023-06-22T02:31:04;97500.63;;;19.63;100.00
8061;BME280;4073;42.626;25.386;2023-06-22T02:33:30;97504.94;;;19.64;100.00
8061;BME280;4073;42.626;25.386;2023-06-22T02:35:55;97511.63;;;19.67;100.00
8061;BME280;4073;42.626;25.386;2023-06-22T02:38:21;97505.09;;;19.68;100.00
8061;BME280;4073;42.626;25.386;2023-06-22T02:40:48;97507.00;;;19.67;100.00
8061;BME280;4073;42.626;25.386;2023-06-22T02:43:14;97511.00;;;19.61;100.00
8061;BME280;4073;42.626;25.386;2023-06-22T02:45:39;97505.13;;;19.59;100.00
8061;BME280;4073;42.626;25.386;2023-06-22T02:48:05;97511.81;;;19.62;100.00
8061;BME280;4073;42.626;25.386;2023-06-22T02:50:30;97520.75;;;19.62;100.00
8061;BME280;4073;42.626;25.386;2023-06-22T02:52:56;97518.03;;;19.62;100.00
8061;BME280;4073;42.626;25.386;2023-06-22T02:55:21;97513.25;;;19.59;100.00
8061;BME280;4073;42.626;25.386;2023-06-22T02:57:47;97521.22;;;19.56;100.00
8061;BME280;4073;42.626;25.386;2023-06-22T03:00:13;97524.09;;;19.51;100.00
8061;BME280;4073;42.626;25.386;2023-06-22T03:02:46;97525.38;;;19.45;100.00
8061;BME280;4073;42.626;25.386;2023-06-22T03:05:12;97524.44;;;19.41;100.00
8061;BME280;4073;42.626;25.386;2023-06-22T03:07:43;97528.25;;;19.40;100.00
8061;BME280;4073;42.626;25.386;2023-06-22T03:10:13;97521.09;;;19.35;100.00
8061;BME280;4073;42.626;25.386;2023-06-22T03:12:39;97517.75;;;19.30;100.00
8061;BME280;4073;42.626;25.386;2023-06-22T03:15:06;97526.50;;;19.27;100.00
8061;BME280;4073;42.626;25.386;2023-06-22T03:17:33;97521.41;;;19.25;100.00
8061;BME280;4073;42.626;25.386;2023-06-22T03:19:59;97518.06;;;19.28;100.00
8061;BME280;4073;42.626;25.386;2023-06-22T03:22:24;97521.41;;;19.34;100.00
8061;BME280;4073;42.626;25.386;2023-06-22T03:24:49;97520.78;;;19.37;100.00
8061;BME280;4073;42.626;25.386;2023-06-22T03:27:15;97519.00;;;19.32;100.00
8061;BME280;4073;42.626;25.386;2023-06-22T03:29:40;97533.66;;;19.31;100.00
8061;BME280;4073;42.626;25.386;2023-06-22T03:32:06;97532.72;;;19.36;100.00
8061;BME280;4073;42.626;25.386;2023-06-22T03:34:32;97532.72;;;19.36;100.00
8061;BME280;4073;42.626;25.386;2023-06-22T03:37:04;97530.31;;;19.34;100.00
8061;BME280;4073;42.626;25.386;2023-06-22T03:39:29;97533.84;;;19.35;100.00
8061;BME280;4073;42.626;25.386;2023-06-22T03:41:55;97530.63;;;19.33;100.00
8061;BME280;4073;42.626;25.386;2023-06-22T03:44:20;97534.66;;;19.35;100.00
8061;BME280;4073;42.626;25.386;2023-06-22T03:46:46;97540.22;;;19.39;100.00
8061;BME280;4073;42.626;25.386;2023-06-22T03:49:11;97534.16;;;19.42;100.00
8061;BME280;4073;42.626;25.386;2023-06-22T03:51:37;97527.28;;;19.44;100.00
8061;BME280;4073;42.626;25.386;2023-06-22T03:54:02;97533.50;;;19.53;100.00
8061;BME280;4073;42.626;25.386;2023-06-22T03:56:28;97523.28;;;19.59;100.00
8061;BME280;4073;42.626;25.386;2023-06-22T03:58:53;97533.50;;;19.62;100.00
8061;BME280;4073;42.626;25.386;2023-06-22T04:01:19;97529.53;;;19.68;100.00
8061;BME280;4073;42.626;25.386;2023-06-22T04:03:44;97529.03;;;19.74;100.00
8061;BME280;4073;42.626;25.386;2023-06-22T04:06:09;97528.38;;;19.86;100.00
8061;BME280;4073;42.626;25.386;2023-06-22T04:08:35;97519.25;;;19.90;100.00
8061;BME280;4073;42.626;25.386;2023-06-22T04:11:00;97508.72;;;19.97;100.00
8061;BME280;4073;42.626;25.386;2023-06-22T04:13:26;97530.53;;;20.09;100.00
8061;BME280;4073;42.626;25.386;2023-06-22T04:15:51;97527.22;;;20.12;100.00
8061;BME280;4073;42.626;25.386;2023-06-22T04:18:17;97527.19;;;20.21;100.00
8061;BME280;4073;42.626;25.386;2023-06-22T04:20:42;97531.31;;;20.27;100.00
8061;BME280;4073;42.626;25.386;2023-06-22T04:23:10;97536.41;;;20.28;100.00
8061;BME280;4073;42.626;25.386;2023-06-22T04:25:35;97534.28;;;20.42;100.00
8061;BME280;4073;42.626;25.386;2023-06-22T04:28:01;97537.00;;;20.42;100.00
8061;BME280;4073;42.626;25.386;2023-06-22T04:30:28;97543.41;;;20.38;100.00
8061;BME280;4073;42.626;25.386;2023-06-22T04:32:56;97546.13;;;20.38;100.00
8061;BME280;4073;42.626;25.386;2023-06-22T04:35:23;97538.31;;;20.36;100.00
8061;BME280;4073;42.626;25.386;2023-06-22T04:37:49;97539.88;;;20.46;100.00
8061;BME280;4073;42.626;25.386;2023-06-22T04:40:15;97542.06;;;20.53;100.00
8061;BME280;4073;42.626;25.386;2023-06-22T04:42:41;97545.41;;;20.58;100.00
8061;BME280;4073;42.626;25.386;2023-06-22T04:45:17;97545.84;;;20.69;100.00
8061;BME280;4073;42.626;25.386;2023-06-22T04:47:43;97544.66;;;20.78;100.00
8061;BME280;4073;42.626;25.386;2023-06-22T04:50:13;97551.78;;;20.91;100.00
8061;BME280;4073;42.626;25.386;2023-06-22T04:52:39;97549.66;;;21.05;100.00
8061;BME280;4073;42.626;25.386;2023-06-22T04:55:05;97553.72;;;21.20;100.00
8061;BME280;4073;42.626;25.386;2023-06-22T04:57:30;97547.69;;;21.35;100.00
8061;BME280;4073;42.626;25.386;2023-06-22T04:59:58;97550.34;;;21.43;100.00
8061;BME280;4073;42.626;25.386;2023-06-22T05:02:36;97549.34;;;21.48;100.00
8061;BME280;4073;42.626;25.386;2023-06-22T05:05:02;97539.53;;;21.55;100.00
8061;BME280;4073;42.626;25.386;2023-06-22T05:07:35;97546.03;;;21.63;100.00
8061;BME280;4073;42.626;25.386;2023-06-22T05:10:02;97556.13;;;21.62;100.00
8061;BME280;4073;42.626;25.386;2023-06-22T05:12:28;97551.88;;;21.73;100.00
8061;BME280;4073;42.626;25.386;2023-06-22T05:14:54;97554.91;;;21.92;100.00
8061;BME280;4073;42.626;25.386;2023-06-22T05:17:20;97546.09;;;22.07;100.00
8061;BME280;4073;42.626;25.386;2023-06-22T05:19:45;97557.03;;;22.19;100.00
8061;BME280;4073;42.626;25.386;2023-06-22T05:22:16;97551.59;;;22.31;100.00
8061;BME280;4073;42.626;25.386;2023-06-22T05:24:42;97549.34;;;22.45;100.00
8061;BME280;4073;42.626;25.386;2023-06-22T05:27:08;97536.03;;;22.64;100.00
8061;BME280;4073;42.626;25.386;2023-06-22T05:29:33;97547.84;;;22.81;100.00
8061;BME280;4073;42.626;25.386;2023-06-22T05:31:59;97550.34;;;22.98;100.00
8061;BME280;4073;42.626;25.386;2023-06-22T05:34:25;97544.50;;;23.11;100.00
8061;BME280;4073;42.626;25.386;2023-06-22T05:36:50;97544.75;;;23.30;100.00
8061;BME280;4073;42.626;25.386;2023-06-22T05:39:15;97545.16;;;23.44;100.00
8061;BME280;4073;42.626;25.386;2023-06-22T05:41:41;97535.59;;;23.50;100.00
8061;BME280;4073;42.626;25.386;2023-06-22T05:44:08;97551.34;;;23.69;100.00
8061;BME280;4073;42.626;25.386;2023-06-22T05:46:33;97540.81;;;23.83;100.00
8061;BME280;4073;42.626;25.386;2023-06-22T05:48:59;97550.44;;;24.04;100.00
8061;BME280;4073;42.626;25.386;2023-06-22T05:51:24;97540.56;;;24.15;100.00
8061;BME280;4073;42.626;25.386;2023-06-22T05:53:50;97547.03;;;24.38;100.00
8061;BME280;4073;42.626;25.386;2023-06-22T05:56:16;97553.94;;;24.63;100.00
8061;BME280;4073;42.626;25.386;2023-06-22T05:58:42;97543.63;;;24.88;100.00
8061;BME280;4073;42.626;25.386;2023-06-22T06:01:07;97545.28;;;25.08;100.00
8061;BME280;4073;42.626;25.386;2023-06-22T06:03:32;97544.00;;;25.37;98.90
8061;BME280;4073;42.626;25.386;2023-06-22T06:05:58;97549.34;;;25.68;97.24
8061;BME280;4073;42.626;25.386;2023-06-22T06:08:25;97550.59;;;25.89;96.52
8061;BME280;4073;42.626;25.386;2023-06-22T06:10:50;97547.50;;;25.91;93.55
8061;BME280;4073;42.626;25.386;2023-06-22T06:13:18;97555.28;;;26.08;93.85
8061;BME280;4073;42.626;25.386;2023-06-22T06:15:44;97542.75;;;26.29;91.29
8061;BME280;4073;42.626;25.386;2023-06-22T06:18:09;97546.09;;;26.61;85.11
8061;BME280;4073;42.626;25.386;2023-06-22T06:20:35;97544.94;;;26.84;82.19
8061;BME280;4073;42.626;25.386;2023-06-22T06:23:00;97559.38;;;27.07;80.21
8061;BME280;4073;42.626;25.386;2023-06-22T06:25:26;97554.44;;;27.16;79.02
8061;BME280;4073;42.626;25.386;2023-06-22T06:27:52;97552.47;;;27.43;78.75
8061;BME280;4073;42.626;25.386;2023-06-22T06:30:20;97555.19;;;27.69;76.66
8061;BME280;4073;42.626;25.386;2023-06-22T06:32:46;97553.63;;;27.98;76.23
8061;BME280;4073;42.626;25.386;2023-06-22T06:35:12;97546.34;;;28.12;76.15
8061;BME280;4073;42.626;25.386;2023-06-22T06:37:40;97559.88;;;28.31;75.92
8061;BME280;4073;42.626;25.386;2023-06-22T06:40:07;97563.88;;;28.37;73.84
8061;BME280;4073;42.626;25.386;2023-06-22T06:42:43;97557.75;;;28.51;75.64
8061;BME280;4073;42.626;25.386;2023-06-22T06:45:23;97554.28;;;28.57;75.24
8061;BME280;4073;42.626;25.386;2023-06-22T06:47:50;97556.81;;;28.80;73.67
8061;BME280;4073;42.626;25.386;2023-06-22T06:50:16;97556.50;;;28.88;72.41
8061;BME280;4073;42.626;25.386;2023-06-22T06:52:42;97544.91;;;29.09;70.94
8061;BME280;4073;42.626;25.386;2023-06-22T06:55:09;97547.41;;;29.31;68.24
8061;BME280;4073;42.626;25.386;2023-06-22T06:57:38;97552.25;;;29.48;66.57
8061;BME280;4073;42.626;25.386;2023-06-22T07:00:09;97538.97;;;29.64;63.34
8061;BME280;4073;42.626;25.386;2023-06-22T07:02:43;97545.75;;;29.88;60.47
8061;BME280;4073;42.626;25.386;2023-06-22T07:05:10;97546.22;;;30.04;61.04
8061;BME280;4073;42.626;25.386;2023-06-22T07:07:36;97542.25;;;29.98;61.82
8061;BME280;4073;42.626;25.386;2023-06-22T07:10:02;97549.38;;;30.13;61.71
8061;BME280;4073;42.626;25.386;2023-06-22T07:12:28;97545.94;;;30.34;60.86
8061;BME280;4073;42.626;25.386;2023-06-22T07:14:56;97550.31;;;30.52;58.87
8061;BME280;4073;42.626;25.386;2023-06-22T07:17:25;97562.09;;;30.46;58.63
8061;BME280;4073;42.626;25.386;2023-06-22T07:19:51;97556.59;;;30.49;58.21
8061;BME280;4073;42.626;25.386;2023-06-22T07:22:16;97557.34;;;30.32;58.86
8061;BME280;4073;42.626;25.386;2023-06-22T07:24:41;97551.44;;;30.44;58.97
8061;BME280;4073;42.626;25.386;2023-06-22T07:27:07;97555.06;;;30.73;57.07
8061;BME280;4073;42.626;25.386;2023-06-22T07:29:32;97557.84;;;31.01;56.59
8061;BME280;4073;42.626;25.386;2023-06-22T07:31:58;97547.94;;;31.24;56.42
8061;BME280;4073;42.626;25.386;2023-06-22T07:34:26;97536.13;;;31.31;56.12
8061;BME280;4073;42.626;25.386;2023-06-22T07:36:51;97552.69;;;31.34;57.38
8061;BME280;4073;42.626;25.386;2023-06-22T07:39:16;97541.19;;;31.57;55.62
8061;BME280;4073;42.626;25.386;2023-06-22T07:41:42;97538.81;;;31.66;54.68
8061;BME280;4073;42.626;25.386;2023-06-22T07:44:07;97540.28;;;31.98;53.86
8061;BME280;4073;42.626;25.386;2023-06-22T07:46:33;97542.09;;;32.33;52.30
8061;BME280;4073;42.626;25.386;2023-06-22T07:48:59;97535.56;;;32.64;50.74
8061;BME280;4073;42.626;25.386;2023-06-22T07:51:25;97541.81;;;32.75;50.23
8061;BME280;4073;42.626;25.386;2023-06-22T07:53:50;97538.53;;;32.91;49.18
8061;BME280;4073;42.626;25.386;2023-06-22T07:56:16;97541.31;;;32.91;49.23
8061;BME280;4073;42.626;25.386;2023-06-22T07:58:46;97541.56;;;33.07;47.75
8061;BME280;4073;42.626;25.386;2023-06-22T08:01:12;97545.28;;;33.34;46.41
8061;BME280;4073;42.626;25.386;2023-06-22T08:03:37;97548.47;;;33.29;47.08
8061;BME280;4073;42.626;25.386;2023-06-22T08:06:04;97557.19;;;33.27;45.37
8061;BME280;4073;42.626;25.386;2023-06-22T08:08:31;97551.72;;;33.20;44.72
8061;BME280;4073;42.626;25.386;2023-06-22T08:10:56;97553.66;;;33.27;43.64
8061;BME280;4073;42.626;25.386;2023-06-22T08:13:22;97551.25;;;33.29;43.36
8061;BME280;4073;42.626;25.386;2023-06-22T08:15:47;97550.66;;;33.07;44.97
8061;BME280;4073;42.626;25.386;2023-06-22T08:18:13;97549.25;;;32.82;46.14
8061;BME280;4073;42.626;25.386;2023-06-22T08:20:38;97540.59;;;32.80;45.94
8061;BME280;4073;42.626;25.386;2023-06-22T08:23:04;97545.72;;;32.78;44.86
8061;BME280;4073;42.626;25.386;2023-06-22T08:25:34;97542.47;;;32.35;45.18
8061;BME280;4073;42.626;25.386;2023-06-22T08:28:01;97545.38;;;32.07;46.35
8061;BME280;4073;42.626;25.386;2023-06-22T08:30:26;97544.69;;;31.89;47.37
8061;BME280;4073;42.626;25.386;2023-06-22T08:32:52;97547.47;;;31.71;48.50
8061;BME280;4073;42.626;25.386;2023-06-22T08:35:18;97540.03;;;31.47;48.74
8061;BME280;4073;42.626;25.386;2023-06-22T08:37:44;97539.31;;;31.29;47.85
8061;BME280;4073;42.626;25.386;2023-06-22T08:40:11;97538.81;;;31.55;48.62
8061;BME280;4073;42.626;25.386;2023-06-22T08:42:36;97535.63;;;31.74;45.97
8061;BME280;4073;42.626;25.386;2023-06-22T08:45:03;97530.50;;;31.62;46.36
8061;BME280;4073;42.626;25.386;2023-06-22T08:47:29;97540.44;;;31.42;49.67
8061;BME280;4073;42.626;25.386;2023-06-22T08:49:54;97551.16;;;31.26;51.73
8061;BME280;4073;42.626;25.386;2023-06-22T08:52:20;97540.81;;;31.48;52.61
8061;BME280;4073;42.626;25.386;2023-06-22T08:54:46;97537.19;;;31.79;50.48
8061;BME280;4073;42.626;25.386;2023-06-22T08:57:12;97545.47;;;31.75;51.09
8061;BME280;4073;42.626;25.386;2023-06-22T08:59:37;97546.28;;;31.76;49.30
8061;BME280;4073;42.626;25.386;2023-06-22T09:02:03;97544.28;;;31.83;48.81
8061;BME280;4073;42.626;25.386;2023-06-22T09:04:28;97533.63;;;31.78;49.37
8061;BME280;4073;42.626;25.386;2023-06-22T09:06:54;97546.28;;;31.76;50.17
8061;BME280;4073;42.626;25.386;2023-06-22T09:09:21;97540.00;;;31.65;50.88
8061;BME280;4073;42.626;25.386;2023-06-22T09:11:47;97541.59;;;31.55;50.80
8061;BME280;4073;42.626;25.386;2023-06-22T09:14:12;97539.25;;;31.40;51.69
8061;BME280;4073;42.626;25.386;2023-06-22T09:16:38;97544.00;;;31.39;51.49
8061;BME280;4073;42.626;25.386;2023-06-22T09:19:03;97541.63;;;31.24;51.40
8061;BME280;4073;42.626;25.386;2023-06-22T09:21:29;97542.06;;;31.12;53.75
8061;BME280;4073;42.626;25.386;2023-06-22T09:23:54;97537.31;;;30.77;55.48
8061;BME280;4073;42.626;25.386;2023-06-22T09:26:20;97539.31;;;30.73;52.34
8061;BME280;4073;42.626;25.386;2023-06-22T09:28:46;97537.28;;;30.42;52.44
8061;BME280;4073;42.626;25.386;2023-06-22T09:31:12;97536.50;;;30.38;51.90
8061;BME280;4073;42.626;25.386;2023-06-22T09:33:39;97534.41;;;30.11;53.86
8061;BME280;4073;42.626;25.386;2023-06-22T09:36:05;97528.03;;;29.86;52.17
8061;BME280;4073;42.626;25.386;2023-06-22T09:38:37;97531.53;;;29.76;52.50
8061;BME280;4073;42.626;25.386;2023-06-22T09:41:04;97527.25;;;29.82;51.49
8061;BME280;4073;42.626;25.386;2023-06-22T09:43:32;97529.59;;;29.83;51.67
8061;BME280;4073;42.626;25.386;2023-06-22T09:45:57;97526.47;;;29.88;51.85
8061;BME280;4073;42.626;25.386;2023-06-22T09:48:23;97535.81;;;29.66;52.29
8061;BME280;4073;42.626;25.386;2023-06-22T09:50:49;97528.34;;;29.63;49.96
8061;BME280;4073;42.626;25.386;2023-06-22T09:53:14;97521.16;;;29.51;51.67
8061;BME280;4073;42.626;25.386;2023-06-22T09:55:39;97530.28;;;29.62;52.56
8061;BME280;4073;42.626;25.386;2023-06-22T09:58:05;97524.56;;;30.03;51.79
8061;BME280;4073;42.626;25.386;2023-06-22T10:00:30;97528.63;;;30.68;50.28
8061;BME280;4073;42.626;25.386;2023-06-22T10:02:56;97524.25;;;31.44;48.27
8061;BME280;4073;42.626;25.386;2023-06-22T10:05:22;97516.56;;;32.01;44.64
8061;BME280;4073;42.626;25.386;2023-06-22T10:07:48;97523.50;;;32.30;43.09
8061;BME280;4073;42.626;25.386;2023-06-22T10:10:14;97524.84;;;32.70;42.91
8061;BME280;4073;42.626;25.386;2023-06-22T10:12:46;97524.69;;;32.91;42.50
8061;BME280;4073;42.626;25.386;2023-06-22T10:15:12;97522.16;;;32.59;40.25
8061;BME280;4073;42.626;25.386;2023-06-22T10:17:38;97526.00;;;32.07;41.75
8061;BME280;4073;42.626;25.386;2023-06-22T10:20:05;97520.03;;;32.12;40.93
8061;BME280;4073;42.626;25.386;2023-06-22T10:22:37;97519.53;;;32.38;40.27
8061;BME280;4073;42.626;25.386;2023-06-22T10:25:03;97517.38;;;32.63;38.92
8061;BME280;4073;42.626;25.386;2023-06-22T10:27:29;97512.88;;;32.87;39.21
8061;BME280;4073;42.626;25.386;2023-06-22T10:29:54;97511.03;;;33.14;39.28
8061;BME280;4073;42.626;25.386;2023-06-22T10:32:20;97513.53;;;33.42;36.60
8061;BME280;4073;42.626;25.386;2023-06-22T10:34:45;97516.38;;;33.31;36.65
8061;BME280;4073;42.626;25.386;2023-06-22T10:37:10;97521.34;;;33.50;36.03
8061;BME280;4073;42.626;25.386;2023-06-22T10:39:36;97516.69;;;33.44;35.67
8061;BME280;4073;42.626;25.386;2023-06-22T10:42:01;97507.31;;;33.68;35.51
8061;BME280;4073;42.626;25.386;2023-06-22T10:44:27;97503.63;;;33.74;35.38
8061;BME280;4073;42.626;25.386;2023-06-22T10:46:52;97501.75;;;33.68;35.98
8061;BME280;4073;42.626;25.386;2023-06-22T10:49:18;97494.06;;;33.82;34.52
8061;BME280;4073;42.626;25.386;2023-06-22T10:51:43;97499.44;;;33.96;36.66
8061;BME280;4073;42.626;25.386;2023-06-22T10:54:09;97499.50;;;34.19;35.71
8061;BME280;4073;42.626;25.386;2023-06-22T10:56:34;97505.03;;;34.50;34.42
8061;BME280;4073;42.626;25.386;2023-06-22T10:59:00;97508.50;;;34.80;34.44
8061;BME280;4073;42.626;25.386;2023-06-22T11:01:25;97500.69;;;34.98;34.30
8061;BME280;4073;42.626;25.386;2023-06-22T11:03:50;97497.81;;;35.25;33.37
8061;BME280;4073;42.626;25.386;2023-06-22T11:06:16;97502.22;;;35.45;32.58
8061;BME280;4073;42.626;25.386;2023-06-22T11:08:44;97496.47;;;35.95;33.32
8061;BME280;4073;42.626;25.386;2023-06-22T11:11:10;97497.09;;;36.02;32.57
8061;BME280;4073;42.626;25.386;2023-06-22T11:13:35;97506.75;;;35.98;33.51
8061;BME280;4073;42.626;25.386;2023-06-22T11:16:01;97501.16;;;35.59;33.59
8061;BME280;4073;42.626;25.386;2023-06-22T11:18:27;97501.72;;;35.50;32.85
8061;BME280;4073;42.626;25.386;2023-06-22T11:20:52;97500.38;;;35.39;33.17
8061;BME280;4073;42.626;25.386;2023-06-22T11:23:18;97502.97;;;34.80;34.69
8061;BME280;4073;42.626;25.386;2023-06-22T11:25:44;97504.06;;;34.06;38.18
8061;BME280;4073;42.626;25.386;2023-06-22T11:28:11;97492.59;;;34.04;40.01
8061;BME280;4073;42.626;25.386;2023-06-22T11:30:36;97499.19;;;34.14;40.64
8061;BME280;4073;42.626;25.386;2023-06-22T11:33:02;97492.69;;;34.24;40.01
8061;BME280;4073;42.626;25.386;2023-06-22T11:35:27;97489.84;;;33.71;39.33
8061;BME280;4073;42.626;25.386;2023-06-22T11:37:53;97492.16;;;33.42;39.53
8061;BME280;4073;42.626;25.386;2023-06-22T11:40:18;97488.06;;;33.17;40.89
8061;BME280;4073;42.626;25.386;2023-06-22T11:42:44;97489.53;;;32.81;43.17
8061;BME280;4073;42.626;25.386;2023-06-22T11:45:09;97496.53;;;32.48;46.80
8061;BME280;4073;42.626;25.386;2023-06-22T11:47:35;97494.03;;;32.03;47.53
8061;BME280;4073;42.626;25.386;2023-06-22T11:50:02;97497.75;;;31.64;48.47
8061;BME280;4073;42.626;25.386;2023-06-22T11:52:28;97497.88;;;31.29;50.19
8061;BME280;4073;42.626;25.386;2023-06-22T11:54:53;97488.38;;;31.34;49.90
8061;BME280;4073;42.626;25.386;2023-06-22T11:57:18;97492.66;;;31.45;50.37
8061;BME280;4073;42.626;25.386;2023-06-22T11:59:44;97488.97;;;31.90;49.76
8061;BME280;4073;42.626;25.386;2023-06-22T12:02:09;97487.88;;;32.43;47.37
8061;BME280;4073;42.626;25.386;2023-06-22T12:04:35;97481.47;;;33.00;47.10
8061;BME280;4073;42.626;25.386;2023-06-22T12:07:00;97485.13;;;33.31;43.67
8061;BME280;4073;42.626;25.386;2023-06-22T12:09:26;97487.91;;;33.27;41.94
8061;BME280;4073;42.626;25.386;2023-06-22T12:11:51;97485.88;;;33.31;40.84
8061;BME280;4073;42.626;25.386;2023-06-22T12:14:17;97480.56;;;33.14;43.26
8061;BME280;4073;42.626;25.386;2023-06-22T12:16:42;97482.50;;;32.73;43.05
8061;BME280;4073;42.626;25.386;2023-06-22T12:19:10;97477.69;;;32.33;43.81
8061;BME280;4073;42.626;25.386;2023-06-22T12:21:37;97475.50;;;31.92;45.45
8061;BME280;4073;42.626;25.386;2023-06-22T12:24:03;97483.97;;;31.47;47.80
8061;BME280;4073;42.626;25.386;2023-06-22T12:26:28;97480.50;;;31.15;50.34
8061;BME280;4073;42.626;25.386;2023-06-22T12:28:54;97474.63;;;30.78;51.98
8061;BME280;4073;42.626;25.386;2023-06-22T12:31:19;97477.38;;;30.67;52.93
8061;BME280;4073;42.626;25.386;2023-06-22T12:33:44;97474.22;;;30.51;54.98
8061;BME280;4073;42.626;25.386;2023-06-22T12:36:10;97482.50;;;30.51;55.41
8061;BME280;4073;42.626;25.386;2023-06-22T12:38:35;97471.47;;;30.55;55.71
8061;BME280;4073;42.626;25.386;2023-06-22T12:41:01;97473.81;;;30.39;55.25
8061;BME280;4073;42.626;25.386;2023-06-22T12:43:26;97472.25;;;30.38;55.79
8061;BME280;4073;42.626;25.386;2023-06-22T12:45:52;97469.06;;;30.36;56.25
8061;BME280;4073;42.626;25.386;2023-06-22T12:48:18;97473.03;;;30.24;57.57
8061;BME280;4073;42.626;25.386;2023-06-22T12:50:44;97475.31;;;30.12;57.61
8061;BME280;4073;42.626;25.386;2023-06-22T12:53:09;97472.56;;;30.08;57.00
8061;BME280;4073;42.626;25.386;2023-06-22T12:55:35;97474.16;;;30.06;56.84
8061;BME280;4073;42.626;25.386;2023-06-22T12:58:00;97479.25;;;29.97;58.38
8061;BME280;4073;42.626;25.386;2023-06-22T13:00:25;97477.59;;;29.74;59.63
8061;BME280;4073;42.626;25.386;2023-06-22T13:02:51;97473.66;;;29.68;60.23
8061;BME280;4073;42.626;25.386;2023-06-22T13:05:16;97471.69;;;29.73;60.90
8061;BME280;4073;42.626;25.386;2023-06-22T13:07:42;97470.16;;;29.79;59.14
8061;BME280;4073;42.626;25.386;2023-06-22T13:10:08;97465.44;;;29.90;59.83